EDT,Max TemperatureF,Mean TemperatureF,Min TemperatureF,Max Dew PointF,MeanDew PointF,Min DewpointF,Max Humidity, Mean Humidity, Min Humidity, Max Sea Level PressureIn, Mean Sea Level PressureIn, Min Sea Level PressureIn, Max VisibilityMiles, Mean VisibilityMiles, Min VisibilityMiles, Max Wind SpeedMPH, Mean Wind SpeedMPH, Max Gust SpeedMPH,PrecipitationIn, CloudCover, Events, WindDirDegrees
2013-5-1,82,69,55,55,52,48,93,64,35,30.21,30.15,30.08,10,10,10,14,5,18,0.00,1,,106
2013-5-2,77,66,55,56,51,46,72,59,46,30.25,30.19,30.12,10,10,10,15,5,20,0.00,3,,119
2013-5-3,76,65,53,51,43,33,83,53,23,30.14,30.09,30.04,10,10,10,16,8,24,0.00,0,,121
2013-5-4,75,64,52,46,42,35,71,51,31,30.06,30.01,29.94,10,10,10,18,8,26,0.00,1,,109
2013-5-5,60,56,52,55,46,34,93,65,37,30.02,29.95,29.90,10,9,5,13,5,20,0.36,6,Rain,73
2013-5-6,63,59,55,57,54,50,86,79,72,29.92,29.90,29.86,10,9,3,14,7,20,0.14,7,Rain,60
2013-5-7,67,60,52,59,54,51,100,84,68,29.96,29.92,29.90,10,5,0,8,2,10,0.28,6,Fog-Rain-Thunderstorm,353
2013-5-8,71,63,54,58,55,51,100,75,49,30.00,29.93,29.88,10,5,0,10,5,14,0.03,6,Fog-Rain,294
2013-5-9,77,65,52,60,55,52,100,75,50,30.06,30.01,29.97,10,6,0,8,4,13,0.02,2,Fog-Rain,202
2013-5-10,77,69,61,63,59,56,93,77,60,30.00,29.93,29.86,10,8,1,30,7,44,0.16,5,Rain-Thunderstorm,202
2013-5-11,65,59,52,61,56,48,93,83,72,29.94,29.87,29.82,10,9,5,14,7,20,0.02,8,Rain,244
2013-5-12,60,52,44,49,35,29,76,55,33,30.13,30.04,29.94,10,10,6,21,6,28,T,5,Rain,298
2013-5-13,62,51,39,39,33,28,92,61,29,30.19,30.15,30.10,10,10,2,15,4,22,T,4,Rain,282
2013-5-14,78,58,37,52,42,35,92,64,35,30.19,30.06,29.88,10,10,10,16,7,23,0.00,1,,201
2013-5-15,88,76,64,59,53,47,73,51,28,29.96,29.90,29.84,10,10,10,22,10,30,0.00,0,,224
2013-5-16,77,70,62,64,58,50,100,76,51,30.02,29.95,29.88,10,8,1,12,4,17,0.01,4,Rain-Thunderstorm,226
2013-5-17,80,70,59,64,61,57,100,77,54,30.08,30.04,30.00,10,5,0,9,2,12,T,5,Fog,99
2013-5-18,82,72,62,64,62,61,93,70,47,30.07,30.02,29.96,10,8,1,12,2,16,T,5,,141
2013-5-19,84,74,64,68,65,63,93,72,51,30.04,29.98,29.92,10,9,4,10,4,15,0.02,5,Rain,165
2013-5-20,83,74,64,70,66,63,93,80,67,30.06,29.99,29.94,10,10,9,9,4,,0.00,2,,181
2013-5-21,88,77,66,69,66,61,93,72,50,30.00,29.92,29.84,10,9,3,24,6,37,0.04,2,Rain-Thunderstorm,205
2013-5-22,87,74,61,65,62,56,93,65,37,29.92,29.84,29.78,10,10,5,21,7,33,0.03,2,Rain,214
2013-5-23,77,67,56,66,60,54,100,75,49,29.97,29.87,29.82,10,9,0,20,9,30,0.46,5,Rain,233
2013-5-24,64,55,46,55,40,35,77,56,34,30.30,30.19,29.98,10,10,7,18,9,25,T,4,Rain,346
2013-5-25,67,53,39,46,39,34,92,63,34,30.39,30.32,30.24,10,10,7,10,2,14,0.00,0,,275
2013-5-26,71,56,41,48,43,37,83,58,33,30.30,30.26,30.21,10,10,10,9,2,12,0.00,2,,57
2013-5-27,82,65,48,59,53,46,93,67,40,30.23,30.13,30.02,10,10,5,14,3,18,0.01,5,Rain,150
2013-5-28,88,77,66,62,58,55,68,53,37,30.10,30.04,29.98,10,10,10,18,7,24,0.00,3,,201
2013-5-29,89,77,65,65,60,56,84,62,39,30.14,30.09,30.04,10,10,10,15,6,22,0.00,1,,203
2013-5-30,90,77,64,65,62,59,93,66,39,30.20,30.12,30.05,10,10,7,10,4,17,0.00,0,,163
2013-5-31,91,78,64,64,62,60,81,60,38,30.12,30.05,29.98,10,10,9,14,5,20,0.00,2,,200